sensor_id;sensor_type;location;lat;lon;timestamp;pressure;altitude;pressure_sealevel;temperature;humidity
53647;BME280;39550;52.230;5.194;2023-01-16T00:01:43;99421.50;;;5.14;88.48
53647;BME280;39550;52.230;5.194;2023-01-16T00:04:08;99424.91;;;5.13;88.71
53647;BME280;39550;52.230;5.194;2023-01-16T00:06:34;99421.50;;;5.14;88.78
53647;BME280;39550;52.230;5.194;2023-01-16T00:09:01;99416.41;;;5.14;88.37
53647;BME280;39550;52.230;5.194;2023-01-16T00:11:27;99409.63;;;5.17;88.84
53647;BME280;39550;52.230;5.194;2023-01-16T00:13:52;99406.22;;;5.17;88.79
53647;BME280;39550;52.230;5.194;2023-01-16T00:16:18;99310.59;;;4.67;88.65
53647;BME280;39550;52.230;5.194;2023-01-16T00:18:44;99398.59;;;5.23;88.67
53647;BME280;39550;52.230;5.194;2023-01-16T00:21:09;99374.66;;;5.05;88.70
53647;BME280;39550;52.230;5.194;2023-01-16T00:23:35;99385.78;;;5.17;88.68
53647;BME280;39550;52.230;5.194;2023-01-16T00:26:05;99375.53;;;5.09;88.93
53647;BME280;39550;52.230;5.194;2023-01-16T00:28:30;99384.09;;;5.22;88.73
53647;BME280;39550;52.230;5.194;2023-01-16T00:30:57;99366.19;;;5.13;88.59
53647;BME280;39550;52.230;5.194;2023-01-16T00:33:22;99302.13;;;4.75;88.75
53647;BME280;39550;52.230;5.194;2023-01-16T00:35:48;99361.94;;;5.18;88.55
53647;BME280;39550;52.230;5.194;2023-01-16T00:38:13;99349.16;;;5.15;88.79
53647;BME280;39550;52.230;5.194;2023-01-16T00:40:39;99322.69;;;4.97;88.52
53647;BME280;39550;52.230;5.194;2023-01-16T00:43:04;99341.50;;;5.11;88.84
53647;BME280;39550;52.230;5.194;2023-01-16T00:45:29;99268.06;;;4.70;88.84
53647;BME280;39550;52.230;5.194;2023-01-16T00:47:55;99327.84;;;5.09;89.03
53647;BME280;39550;52.230;5.194;2023-01-16T00:50:20;99325.28;;;5.08;88.67
53647;BME280;39550;52.230;5.194;2023-01-16T00:52:45;99331.31;;;5.18;88.44
53647;BME280;39550;52.230;5.194;2023-01-16T00:55:11;99333.00;;;5.19;88.64
53647;BME280;39550;52.230;5.194;2023-01-16T00:57:36;99334.72;;;5.18;89.02
53647;BME280;39550;52.230;5.194;2023-01-16T01:00:03;99308.28;;;5.07;88.97
53647;BME280;39550;52.230;5.194;2023-01-16T01:02:28;99260.47;;;4.76;88.47
53647;BME280;39550;52.230;5.194;2023-01-16T01:04:54;99303.19;;;5.05;88.82
53647;BME280;39550;52.230;5.194;2023-01-16T01:07:19;99315.97;;;5.18;89.21
53647;BME280;39550;52.230;5.194;2023-01-16T01:09:44;99280.16;;;5.02;88.55
53647;BME280;39550;52.230;5.194;2023-01-16T01:12:09;99287.00;;;5.06;88.58
53647;BME280;39550;52.230;5.194;2023-01-16T01:14:35;99295.53;;;5.16;88.70
53647;BME280;39550;52.230;5.194;2023-01-16T01:17:00;99268.28;;;5.04;88.80
53647;BME280;39550;52.230;5.194;2023-01-16T01:19:25;99277.66;;;5.05;88.87
53647;BME280;39550;52.230;5.194;2023-01-16T01:21:51;99209.38;;;4.72;88.46
53647;BME280;39550;52.230;5.194;2023-01-16T01:24:16;99277.66;;;5.15;88.61
53647;BME280;39550;52.230;5.194;2023-01-16T01:26:41;99221.31;;;4.77;88.69
53647;BME280;39550;52.230;5.194;2023-01-16T01:29:07;99258.91;;;5.03;88.16
53647;BME280;39550;52.230;5.194;2023-01-16T01:31:32;99267.44;;;5.13;88.63
53647;BME280;39550;52.230;5.194;2023-01-16T01:33:57;99248.69;;;5.05;88.81
53647;BME280;39550;52.230;5.194;2023-01-16T01:36:23;99255.53;;;5.14;88.94
53647;BME280;39550;52.230;5.194;2023-01-16T01:38:48;99188.13;;;4.74;88.40
53647;BME280;39550;52.230;5.194;2023-01-16T01:41:16;99247.84;;;5.10;88.44
53647;BME280;39550;52.230;5.194;2023-01-16T01:43:47;99241.03;;;5.09;88.95
53647;BME280;39550;52.230;5.194;2023-01-16T01:46:42;99232.53;;;5.07;89.02
53647;BME280;39550;52.230;5.194;2023-01-16T01:49:20;99222.31;;;5.04;88.70
53647;BME280;39550;52.230;5.194;2023-01-16T01:51:48;99211.22;;;4.99;89.14
53647;BME280;39550;52.230;5.194;2023-01-16T01:54:18;99216.34;;;4.99;88.42
53647;BME280;39550;52.230;5.194;2023-01-16T01:57:02;99206.97;;;4.98;89.27
53647;BME280;39550;52.230;5.194;2023-01-16T01:59:33;99182.25;;;4.86;88.89
53647;BME280;39550;52.230;5.194;2023-01-16T02:02:02;99220.59;;;5.06;88.87
53647;BME280;39550;52.230;5.194;2023-01-16T02:04:32;99206.97;;;4.98;88.44
53647;BME280;39550;52.230;5.194;2023-01-16T02:07:06;99194.19;;;4.95;88.86
53647;BME280;39550;52.230;5.194;2023-01-16T02:09:33;99202.72;;;5.03;88.57
53647;BME280;39550;52.230;5.194;2023-01-16T02:12:11;99203.63;;;5.08;88.58
53647;BME280;39550;52.230;5.194;2023-01-16T02:14:39;99183.13;;;4.96;88.53
53647;BME280;39550;52.230;5.194;2023-01-16T02:17:16;99179.72;;;4.94;88.51
53647;BME280;39550;52.230;5.194;2023-01-16T02:20:21;99185.72;;;5.05;88.93
53647;BME280;39550;52.230;5.194;2023-01-16T02:37:43;99166.16;;;5.04;88.17
53647;BME280;39550;52.230;5.194;2023-01-16T02:40:27;99167.00;;;5.03;88.54
53647;BME280;39550;52.230;5.194;2023-01-16T02:54:05;99116.72;;;4.90;88.45
53647;BME280;39550;52.230;5.194;2023-01-16T02:56:59;99142.31;;;5.02;88.70
53647;BME280;39550;52.230;5.194;2023-01-16T02:59:27;99115.91;;;4.95;88.98
53647;BME280;39550;52.230;5.194;2023-01-16T03:01:56;99126.97;;;5.01;88.83
53647;BME280;39550;52.230;5.194;2023-01-16T03:04:48;99121.03;;;5.00;88.61
53647;BME280;39550;52.230;5.194;2023-01-16T03:07:45;99118.47;;;5.00;88.11
53647;BME280;39550;52.230;5.194;2023-01-16T03:16:29;99046.97;;;4.77;88.52
53647;BME280;39550;52.230;5.194;2023-01-16T03:19:22;99071.66;;;4.98;88.39
53647;BME280;39550;52.230;5.194;2023-01-16T03:22:04;99064.88;;;4.97;88.97
53647;BME280;39550;52.230;5.194;2023-01-16T03:27:38;99050.41;;;4.98;89.11
53647;BME280;39550;52.230;5.194;2023-01-16T03:32:49;99038.47;;;4.95;88.46
53647;BME280;39550;52.230;5.194;2023-01-16T03:35:27;99029.97;;;4.96;88.98
53647;BME280;39550;52.230;5.194;2023-01-16T03:37:57;99010.38;;;4.87;88.92
53647;BME280;39550;52.230;5.194;2023-01-16T03:40:30;99011.25;;;4.88;88.26
53647;BME280;39550;52.230;5.194;2023-01-16T03:43:08;99024.00;;;4.95;89.04
53647;BME280;39550;52.230;5.194;2023-01-16T03:45:40;99010.41;;;4.97;88.48
53647;BME280;39550;52.230;5.194;2023-01-16T03:48:20;98988.25;;;4.82;88.42
53647;BME280;39550;52.230;5.194;2023-01-16T03:50:53;98989.97;;;4.83;88.78
53647;BME280;39550;52.230;5.194;2023-01-16T03:53:31;98994.22;;;4.91;88.97
53647;BME280;39550;52.230;5.194;2023-01-16T03:58:35;98941.47;;;4.64;88.30
53647;BME280;39550;52.230;5.194;2023-01-16T04:04:10;98982.34;;;4.92;88.19
53647;BME280;39550;52.230;5.194;2023-01-16T04:06:49;98972.13;;;4.92;88.50
53647;BME280;39550;52.230;5.194;2023-01-16T04:09:49;98963.59;;;4.91;88.11
53647;BME280;39550;52.230;5.194;2023-01-16T04:12:19;98943.19;;;4.84;88.51
53647;BME280;39550;52.230;5.194;2023-01-16T04:14:46;98950.84;;;4.91;88.35
53647;BME280;39550;52.230;5.194;2023-01-16T04:17:12;98897.25;;;4.64;89.14
53647;BME280;39550;52.230;5.194;2023-01-16T04:19:38;98887.03;;;4.60;88.40
53647;BME280;39550;52.230;5.194;2023-01-16T04:22:08;98931.28;;;4.92;88.31
53647;BME280;39550;52.230;5.194;2023-01-16T04:24:34;98880.25;;;4.61;88.84
53647;BME280;39550;52.230;5.194;2023-01-16T04:27:00;98870.88;;;4.65;88.62
53647;BME280;39550;52.230;5.194;2023-01-16T04:29:26;98904.91;;;4.88;88.61
53647;BME280;39550;52.230;5.194;2023-01-16T04:31:51;98851.34;;;4.56;88.44
53647;BME280;39550;52.230;5.194;2023-01-16T04:34:16;98831.78;;;4.52;89.04
53647;BME280;39550;52.230;5.194;2023-01-16T04:36:42;98887.03;;;4.90;87.97
53647;BME280;39550;52.230;5.194;2023-01-16T04:39:07;98785.88;;;4.36;88.39
53647;BME280;39550;52.230;5.194;2023-01-16T04:41:32;98804.56;;;4.52;88.86
53647;BME280;39550;52.230;5.194;2023-01-16T04:44:01;98836.84;;;4.72;88.18
53647;BME280;39550;52.230;5.194;2023-01-16T04:46:27;98763.78;;;4.35;88.19
53647;BME280;39550;52.230;5.194;2023-01-16T04:48:52;98785.03;;;4.56;88.58
53647;BME280;39550;52.230;5.194;2023-01-16T04:51:17;98834.28;;;4.86;88.24
53647;BME280;39550;52.230;5.194;2023-01-16T04:53:42;98769.72;;;4.47;88.50
53647;BME280;39550;52.230;5.194;2023-01-16T04:56:08;98795.19;;;4.74;88.63
53647;BME280;39550;52.230;5.194;2023-01-16T04:58:33;98779.06;;;4.71;88.67
53647;BME280;39550;52.230;5.194;2023-01-16T05:00:58;98795.19;;;4.84;88.40
53647;BME280;39550;52.230;5.194;2023-01-16T05:03:24;98782.44;;;4.81;88.56
53647;BME280;39550;52.230;5.194;2023-01-16T05:05:49;98765.41;;;4.72;88.54
53647;BME280;39550;52.230;5.194;2023-01-16T05:08:14;98767.97;;;4.80;88.50
53647;BME280;39550;52.230;5.194;2023-01-16T05:10:43;98733.97;;;4.62;88.52
53647;BME280;39550;52.230;5.194;2023-01-16T05:13:08;98721.25;;;4.57;88.22
53647;BME280;39550;52.230;5.194;2023-01-16T05:15:33;98759.47;;;4.84;88.53
53647;BME280;39550;52.230;5.194;2023-01-16T05:17:59;98677.91;;;4.37;88.06
53647;BME280;39550;52.230;5.194;2023-01-16T05:20:24;98748.41;;;4.83;88.49
53647;BME280;39550;52.230;5.194;2023-01-16T05:22:49;98749.25;;;4.84;88.60
53647;BME280;39550;52.230;5.194;2023-01-16T05:25:15;98706.72;;;4.73;88.99
53647;BME280;39550;52.230;5.194;2023-01-16T05:27:40;98705.06;;;4.74;88.31
53647;BME280;39550;52.230;5.194;2023-01-16T05:30:06;98673.63;;;4.56;88.02
53647;BME280;39550;52.230;5.194;2023-01-16T05:32:31;98677.84;;;4.62;88.98
53647;BME280;39550;52.230;5.194;2023-01-16T05:34:57;98705.88;;;4.77;88.52
53647;BME280;39550;52.230;5.194;2023-01-16T05:37:25;98705.00;;;4.82;88.44
53647;BME280;39550;52.230;5.194;2023-01-16T05:39:51;98639.66;;;4.47;88.41
53647;BME280;39550;52.230;5.194;2023-01-16T05:42:16;98680.34;;;4.77;88.25
53647;BME280;39550;52.230;5.194;2023-01-16T05:44:50;98671.00;;;4.80;88.57
53647;BME280;39550;52.230;5.194;2023-01-16T05:47:16;98598.88;;;4.36;88.53
53647;BME280;39550;52.230;5.194;2023-01-16T05:49:41;98640.41;;;4.70;88.80
53647;BME280;39550;52.230;5.194;2023-01-16T05:52:07;98642.97;;;4.76;88.91
53647;BME280;39550;52.230;5.194;2023-01-16T05:54:32;98627.66;;;4.76;88.46
53647;BME280;39550;52.230;5.194;2023-01-16T05:56:57;98578.44;;;4.48;88.34
53647;BME280;39550;52.230;5.194;2023-01-16T05:59:22;98581.84;;;4.52;88.49
53647;BME280;39550;52.230;5.194;2023-01-16T06:01:48;98586.00;;;4.65;88.70
53647;BME280;39550;52.230;5.194;2023-01-16T06:04:13;98569.91;;;4.57;88.73
53647;BME280;39550;52.230;5.194;2023-01-16T06:06:38;98558.84;;;4.58;88.87
53647;BME280;39550;52.230;5.194;2023-01-16T06:09:04;98511.31;;;4.38;88.25
53647;BME280;39550;52.230;5.194;2023-01-16T06:11:29;98504.53;;;4.37;88.79
53647;BME280;39550;52.230;5.194;2023-01-16T06:13:54;98564.75;;;4.71;88.49
53647;BME280;39550;52.230;5.194;2023-01-16T06:16:21;98553.66;;;4.70;88.97
53647;BME280;39550;52.230;5.194;2023-01-16T06:18:48;98485.03;;;4.29;88.38
53647;BME280;39550;52.230;5.194;2023-01-16T06:21:14;98490.94;;;4.35;88.75
53647;BME280;39550;52.230;5.194;2023-01-16T06:23:39;98522.25;;;4.62;88.68
53647;BME280;39550;52.230;5.194;2023-01-16T06:26:04;98536.69;;;4.71;88.95
53647;BME280;39550;52.230;5.194;2023-01-16T06:28:38;98503.56;;;4.55;88.66
53647;BME280;39550;52.230;5.194;2023-01-16T06:31:05;98506.16;;;4.57;88.54
53647;BME280;39550;52.230;5.194;2023-01-16T06:33:34;98498.50;;;4.58;88.82
53647;BME280;39550;52.230;5.194;2023-01-16T06:36:00;98483.22;;;4.51;88.99
53647;BME280;39550;52.230;5.194;2023-01-16T06:38:26;98453.56;;;4.33;88.76
53647;BME280;39550;52.230;5.194;2023-01-16T06:40:54;98467.94;;;4.43;88.02
53647;BME280;39550;52.230;5.194;2023-01-16T06:43:28;98514.56;;;4.71;88.33
53647;BME280;39550;52.230;5.194;2023-01-16T06:45:54;98514.56;;;4.71;89.14
53647;BME280;39550;52.230;5.194;2023-01-16T06:48:20;98512.03;;;4.70;88.89
53647;BME280;39550;52.230;5.194;2023-01-16T06:50:46;98506.06;;;4.69;88.37
53647;BME280;39550;52.230;5.194;2023-01-16T06:53:12;98504.38;;;4.68;88.32
53647;BME280;39550;52.230;5.194;2023-01-16T06:55:38;98500.94;;;4.69;88.38
53647;BME280;39550;52.230;5.194;2023-01-16T06:58:04;98499.28;;;4.68;88.35
53647;BME280;39550;52.230;5.194;2023-01-16T07:00:29;98466.22;;;4.53;88.53
53647;BME280;39550;52.230;5.194;2023-01-16T07:02:56;98489.06;;;4.68;88.50
53647;BME280;39550;52.230;5.194;2023-01-16T07:05:26;98478.88;;;4.68;89.05
53647;BME280;39550;52.230;5.194;2023-01-16T07:07:52;98466.97;;;4.67;88.27
53647;BME280;39550;52.230;5.194;2023-01-16T07:10:17;98466.09;;;4.70;88.26
53647;BME280;39550;52.230;5.194;2023-01-16T07:12:45;98462.69;;;4.69;88.60
53647;BME280;39550;52.230;5.194;2023-01-16T07:15:11;98455.03;;;4.69;88.37
53647;BME280;39550;52.230;5.194;2023-01-16T07:17:55;98443.16;;;4.68;88.07
53647;BME280;39550;52.230;5.194;2023-01-16T07:20:39;98435.50;;;4.67;88.46
53647;BME280;39550;52.230;5.194;2023-01-16T07:23:33;98419.34;;;4.65;88.36
53647;BME280;39550;52.230;5.194;2023-01-16T07:26:02;98412.53;;;4.65;88.75
53647;BME280;39550;52.230;5.194;2023-01-16T07:28:29;98400.66;;;4.66;88.54
53647;BME280;39550;52.230;5.194;2023-01-16T07:30:55;98401.50;;;4.63;89.12
53647;BME280;39550;52.230;5.194;2023-01-16T07:33:22;98392.16;;;4.62;88.35
53647;BME280;39550;52.230;5.194;2023-01-16T07:35:48;98393.03;;;4.63;89.30
53647;BME280;39550;52.230;5.194;2023-01-16T07:38:13;98382.81;;;4.63;89.24
53647;BME280;39550;52.230;5.194;2023-01-16T07:40:38;98371.78;;;4.59;89.20
53647;BME280;39550;52.230;5.194;2023-01-16T07:43:04;98362.41;;;4.59;88.94
53647;BME280;39550;52.230;5.194;2023-01-16T07:45:29;98364.13;;;4.60;89.29
53647;BME280;39550;52.230;5.194;2023-01-16T07:47:54;98351.34;;;4.62;88.82
53647;BME280;39550;52.230;5.194;2023-01-16T07:50:20;98344.59;;;4.61;89.34
53647;BME280;39550;52.230;5.194;2023-01-16T07:52:45;98341.16;;;4.62;88.81
53647;BME280;39550;52.230;5.194;2023-01-16T07:55:12;98342.88;;;4.60;89.09
53647;BME280;39550;52.230;5.194;2023-01-16T07:57:38;98331.81;;;4.58;89.01
53647;BME280;39550;52.230;5.194;2023-01-16T08:00:08;98338.66;;;4.56;88.26
53647;BME280;39550;52.230;5.194;2023-01-16T08:02:35;98331.00;;;4.56;89.05
53647;BME280;39550;52.230;5.194;2023-01-16T08:05:10;98319.13;;;4.55;88.75
53647;BME280;39550;52.230;5.194;2023-01-16T08:07:36;98311.47;;;4.53;88.88
53647;BME280;39550;52.230;5.194;2023-01-16T08:10:02;98291.91;;;4.54;89.12
53647;BME280;39550;52.230;5.194;2023-01-16T08:12:28;98286.81;;;4.54;89.08
53647;BME280;39550;52.230;5.194;2023-01-16T08:14:53;98277.47;;;4.54;89.28
53647;BME280;39550;52.230;5.194;2023-01-16T08:17:18;98268.09;;;4.55;88.87
53647;BME280;39550;52.230;5.194;2023-01-16T08:19:43;98256.22;;;4.52;89.22
53647;BME280;39550;52.230;5.194;2023-01-16T08:22:09;98240.09;;;4.50;88.79
53647;BME280;39550;52.230;5.194;2023-01-16T08:24:34;98242.63;;;4.52;88.34
53647;BME280;39550;52.230;5.194;2023-01-16T08:26:59;98231.56;;;4.51;88.55
53647;BME280;39550;52.230;5.194;2023-01-16T08:29:25;98222.22;;;4.52;88.69
53647;BME280;39550;52.230;5.194;2023-01-16T08:31:50;98217.94;;;4.54;88.84
53647;BME280;39550;52.230;5.194;2023-01-16T08:34:16;98197.59;;;4.51;89.22
53647;BME280;39550;52.230;5.194;2023-01-16T08:36:42;98189.06;;;4.53;88.80
53647;BME280;39550;52.230;5.194;2023-01-16T08:39:10;98171.28;;;4.49;89.26
53647;BME280;39550;52.230;5.194;2023-01-16T08:41:36;98177.16;;;4.52;88.48
53647;BME280;39550;52.230;5.194;2023-01-16T08:44:20;98172.06;;;4.52;89.00
53647;BME280;39550;52.230;5.194;2023-01-16T08:47:19;98153.41;;;4.50;88.51
53647;BME280;39550;52.230;5.194;2023-01-16T08:50:10;98166.13;;;4.52;88.45
53647;BME280;39550;52.230;5.194;2023-01-16T08:52:55;98157.63;;;4.53;88.27
53647;BME280;39550;52.230;5.194;2023-01-16T08:55:20;98156.75;;;4.52;88.69
53647;BME280;39550;52.230;5.194;2023-01-16T08:57:47;98147.44;;;4.50;88.70
53647;BME280;39550;52.230;5.194;2023-01-16T09:00:12;98147.44;;;4.50;89.15
53647;BME280;39550;52.230;5.194;2023-01-16T09:02:38;98143.19;;;4.50;89.04
53647;BME280;39550;52.230;5.194;2023-01-16T09:05:04;98135.56;;;4.49;88.96
53647;BME280;39550;52.230;5.194;2023-01-16T09:07:29;98118.56;;;4.48;88.31
53647;BME280;39550;52.230;5.194;2023-01-16T09:09:55;98118.56;;;4.48;88.55
53647;BME280;39550;52.230;5.194;2023-01-16T09:12:20;98111.72;;;4.50;89.24
53647;BME280;39550;52.230;5.194;2023-01-16T09:15:05;98111.72;;;4.50;88.83
53647;BME280;39550;52.230;5.194;2023-01-16T09:17:30;98115.13;;;4.52;88.85
53647;BME280;39550;52.230;5.194;2023-01-16T09:19:56;98114.28;;;4.53;88.41
53647;BME280;39550;52.230;5.194;2023-01-16T09:22:22;98104.94;;;4.52;88.83
53647;BME280;39550;52.230;5.194;2023-01-16T09:24:47;98095.59;;;4.51;89.15
53647;BME280;39550;52.230;5.194;2023-01-16T09:27:13;98094.72;;;4.52;89.18
53647;BME280;39550;52.230;5.194;2023-01-16T09:29:39;98091.31;;;4.51;88.67
53647;BME280;39550;52.230;5.194;2023-01-16T09:32:05;98079.47;;;4.49;88.64
53647;BME280;39550;52.230;5.194;2023-01-16T09:34:37;98080.22;;;4.54;88.68
53647;BME280;39550;52.230;5.194;2023-01-16T09:37:04;98073.47;;;4.53;89.05
53647;BME280;39550;52.230;5.194;2023-01-16T09:39:32;98072.59;;;4.54;88.44
53647;BME280;39550;52.230;5.194;2023-01-16T09:45:14;98053.06;;;4.51;88.54
53647;BME280;39550;52.230;5.194;2023-01-16T09:47:44;98052.22;;;4.51;88.41
53647;BME280;39550;52.230;5.194;2023-01-16T09:50:22;98043.72;;;4.52;88.64
53647;BME280;39550;52.230;5.194;2023-01-16T09:52:50;98039.47;;;4.51;88.98
53647;BME280;39550;52.230;5.194;2023-01-16T09:55:40;98040.31;;;4.53;89.29
53647;BME280;39550;52.230;5.194;2023-01-16T09:58:27;98018.28;;;4.46;89.12
53647;BME280;39550;52.230;5.194;2023-01-16T10:01:14;98026.72;;;4.51;88.81
53647;BME280;39550;52.230;5.194;2023-01-16T10:03:40;98023.31;;;4.52;88.54
53647;BME280;39550;52.230;5.194;2023-01-16T10:15:19;98008.91;;;4.49;88.55
53647;BME280;39550;52.230;5.194;2023-01-16T10:23:07;97989.34;;;4.50;88.98
53647;BME280;39550;52.230;5.194;2023-01-16T10:26:17;97985.09;;;4.50;89.18
53647;BME280;39550;52.230;5.194;2023-01-16T10:28:54;97987.63;;;4.52;89.48
53647;BME280;39550;52.230;5.194;2023-01-16T10:34:04;97974.00;;;4.53;88.48
53647;BME280;39550;52.230;5.194;2023-01-16T10:36:45;97963.81;;;4.53;88.63
53647;BME280;39550;52.230;5.194;2023-01-16T10:39:13;97970.63;;;4.51;88.56
53647;BME280;39550;52.230;5.194;2023-01-16T10:41:48;97967.25;;;4.50;89.00
53647;BME280;39550;52.230;5.194;2023-01-16T10:44:38;97955.34;;;4.49;89.26
53647;BME280;39550;52.230;5.194;2023-01-16T10:47:42;97951.97;;;4.49;88.86
53647;BME280;39550;52.230;5.194;2023-01-16T10:50:27;97941.75;;;4.50;89.29
53647;BME280;39550;52.230;5.194;2023-01-16T10:52:54;97941.78;;;4.49;88.94
53647;BME280;39550;52.230;5.194;2023-01-16T10:55:19;97942.56;;;4.51;89.08
53647;BME280;39550;52.230;5.194;2023-01-16T10:57:51;97931.56;;;4.49;89.12
53647;BME280;39550;52.230;5.194;2023-01-16T11:00:32;97934.09;;;4.50;88.86
53647;BME280;39550;52.230;5.194;2023-01-16T11:03:01;97929.81;;;4.51;88.67
53647;BME280;39550;52.230;5.194;2023-01-16T11:05:35;97914.56;;;4.49;88.93
53647;BME280;39550;52.230;5.194;2023-01-16T11:08:18;97913.69;;;4.50;88.53
53647;BME280;39550;52.230;5.194;2023-01-16T11:10:47;97911.94;;;4.52;88.87
53647;BME280;39550;52.230;5.194;2023-01-16T11:13:20;97906.03;;;4.52;89.31
53647;BME280;39550;52.230;5.194;2023-01-16T11:16:18;97891.56;;;4.51;88.46
53647;BME280;39550;52.230;5.194;2023-01-16T11:21:43;97882.28;;;4.47;88.81
53647;BME280;39550;52.230;5.194;2023-01-16T11:24:22;97886.44;;;4.52;88.59
53647;BME280;39550;52.230;5.194;2023-01-16T11:26:54;97882.22;;;4.53;88.95
53647;BME280;39550;52.230;5.194;2023-01-16T11:29:22;97877.97;;;4.52;88.70
53647;BME280;39550;52.230;5.194;2023-01-16T11:32:10;97868.63;;;4.51;89.08
53647;BME280;39550;52.230;5.194;2023-01-16T11:34:38;97882.22;;;4.50;89.25
53647;BME280;39550;52.230;5.194;2023-01-16T11:37:06;97865.22;;;4.52;89.00
53647;BME280;39550;52.230;5.194;2023-01-16T11:39:34;97862.63;;;4.53;88.58
53647;BME280;39550;52.230;5.194;2023-01-16T11:42:04;97853.28;;;4.54;88.44
53647;BME280;39550;52.230;5.194;2023-01-16T11:44:53;97849.03;;;4.54;89.09
53647;BME280;39550;52.230;5.194;2023-01-16T11:47:41;97845.59;;;4.55;88.90
53647;BME280;39550;52.230;5.194;2023-01-16T11:50:28;97839.63;;;4.56;88.41
53647;BME280;39550;52.230;5.194;2023-01-16T11:52:54;97837.94;;;4.57;88.30
53647;BME280;39550;52.230;5.194;2023-01-16T11:55:21;97829.47;;;4.55;89.02
53647;BME280;39550;52.230;5.194;2023-01-16T11:58:04;97814.09;;;4.58;89.14
53647;BME280;39550;52.230;5.194;2023-01-16T12:00:39;97821.75;;;4.58;88.61
53647;BME280;39550;52.230;5.194;2023-01-16T12:03:24;97806.44;;;4.58;88.60
53647;BME280;39550;52.230;5.194;2023-01-16T12:13:55;97792.81;;;4.60;88.57
53647;BME280;39550;52.230;5.194;2023-01-16T12:22:48;97776.69;;;4.60;89.39
53647;BME280;39550;52.230;5.194;2023-01-16T12:42:48;97745.88;;;4.69;88.03
53647;BME280;39550;52.230;5.194;2023-01-16T12:45:45;97745.88;;;4.69;89.03
53647;BME280;39550;52.230;5.194;2023-01-16T12:51:35;97742.47;;;4.70;88.51
53647;BME280;39550;52.230;5.194;2023-01-16T13:05:00;97712.72;;;4.69;88.80
53647;BME280;39550;52.230;5.194;2023-01-16T13:07:31;97699.97;;;4.69;88.90
53647;BME280;39550;52.230;5.194;2023-01-16T13:10:20;97694.88;;;4.69;88.81
53647;BME280;39550;52.230;5.194;2023-01-16T13:13:17;97688.13;;;4.68;88.78
53647;BME280;39550;52.230;5.194;2023-01-16T13:18:36;97676.94;;;4.74;88.17
53647;BME280;39550;52.230;5.194;2023-01-16T13:21:06;97671.88;;;4.72;88.78
53647;BME280;39550;52.230;5.194;2023-01-16T13:23:41;97669.34;;;4.72;88.37
53647;BME280;39550;52.230;5.194;2023-01-16T13:26:11;97664.22;;;4.72;88.44
53647;BME280;39550;52.230;5.194;2023-01-16T13:31:33;97659.13;;;4.72;88.22
53647;BME280;39550;52.230;5.194;2023-01-16T13:40:01;97656.63;;;4.71;88.86
53647;BME280;39550;52.230;5.194;2023-01-16T13:42:31;97663.38;;;4.72;88.75
53647;BME280;39550;52.230;5.194;2023-01-16T13:45:02;97658.31;;;4.70;89.12
53647;BME280;39550;52.230;5.194;2023-01-16T13:47:49;97655.72;;;4.72;88.36
53647;BME280;39550;52.230;5.194;2023-01-16T13:50:27;97654.94;;;4.70;89.29
53647;BME280;39550;52.230;5.194;2023-01-16T13:53:00;97658.38;;;4.67;88.90
53647;BME280;39550;52.230;5.194;2023-01-16T13:55:33;97660.03;;;4.70;89.30
53647;BME280;39550;52.230;5.194;2023-01-16T13:58:15;97644.75;;;4.68;89.45
53647;BME280;39550;52.230;5.194;2023-01-16T14:00:43;97640.44;;;4.70;88.70
53647;BME280;39550;52.230;5.194;2023-01-16T14:03:23;97643.88;;;4.69;89.14
53647;BME280;39550;52.230;5.194;2023-01-16T14:05:52;97638.81;;;4.66;88.59
53647;BME280;39550;52.230;5.194;2023-01-16T14:08:51;97643.06;;;4.67;89.12
53647;BME280;39550;52.230;5.194;2023-01-16T14:12:02;97645.63;;;4.67;88.77
53647;BME280;39550;52.230;5.194;2023-01-16T14:23:18;97617.69;;;4.61;89.18
53647;BME280;39550;52.230;5.194;2023-01-16T14:26:05;97632.03;;;4.67;88.90
53647;BME280;39550;52.230;5.194;2023-01-16T14:28:32;97626.91;;;4.68;89.37
53647;BME280;39550;52.230;5.194;2023-01-16T14:30:59;97626.91;;;4.68;89.48
53647;BME280;39550;52.230;5.194;2023-01-16T14:33:26;97625.22;;;4.67;89.10
53647;BME280;39550;52.230;5.194;2023-01-16T14:35:56;97628.56;;;4.69;89.45
53647;BME280;39550;52.230;5.194;2023-01-16T14:38:27;97628.56;;;4.69;89.26
53647;BME280;39550;52.230;5.194;2023-01-16T14:41:04;97624.34;;;4.68;89.00
53647;BME280;39550;52.230;5.194;2023-01-16T14:44:12;97615.97;;;4.62;90.02
53647;BME280;39550;52.230;5.194;2023-01-16T14:50:39;97612.44;;;4.69;89.54
53647;BME280;39550;52.230;5.194;2023-01-16T14:53:19;97620.13;;;4.67;89.75
53647;BME280;39550;52.230;5.194;2023-01-16T14:56:38;97626.91;;;4.68;89.71
53647;BME280;39550;52.230;5.194;2023-01-16T15:01:57;97631.16;;;4.68;89.86
53647;BME280;39550;52.230;5.194;2023-01-16T15:05:05;97631.16;;;4.68;89.38
53647;BME280;39550;52.230;5.194;2023-01-16T15:07:45;97622.66;;;4.67;89.73
53647;BME280;39550;52.230;5.194;2023-01-16T15:12:44;97614.16;;;4.68;89.36
53647;BME280;39550;52.230;5.194;2023-01-16T15:15:37;97609.06;;;4.68;89.21
53647;BME280;39550;52.230;5.194;2023-01-16T15:18:12;97604.78;;;4.69;89.37
53647;BME280;39550;52.230;5.194;2023-01-16T15:20:57;97617.53;;;4.69;89.85
53647;BME280;39550;52.230;5.194;2023-01-16T15:23:55;97618.41;;;4.68;89.50
53647;BME280;39550;52.230;5.194;2023-01-16T15:27:10;97606.50;;;4.68;89.91
53647;BME280;39550;52.230;5.194;2023-01-16T15:29:51;97607.38;;;4.67;89.51
53647;BME280;39550;52.230;5.194;2023-01-16T15:32:25;97614.19;;;4.67;89.41
53647;BME280;39550;52.230;5.194;2023-01-16T15:35:13;97615.00;;;4.67;89.37
53647;BME280;39550;52.230;5.194;2023-01-16T15:37:47;97611.63;;;4.67;89.55
53647;BME280;39550;52.230;5.194;2023-01-16T15:40:28;97608.28;;;4.63;89.27
53647;BME280;39550;52.230;5.194;2023-01-16T15:42:54;97613.28;;;4.68;90.02
53647;BME280;39550;52.230;5.194;2023-01-16T15:45:47;97620.13;;;4.67;89.37
53647;BME280;39550;52.230;5.194;2023-01-16T15:48:59;97611.59;;;4.68;90.23
53647;BME280;39550;52.230;5.194;2023-01-16T15:51:29;97610.75;;;4.68;89.49
53647;BME280;39550;52.230;5.194;2023-01-16T15:53:56;97615.84;;;4.68;89.74
53647;BME280;39550;52.230;5.194;2023-01-16T15:56:44;97617.53;;;4.69;90.11
53647;BME280;39550;52.230;5.194;2023-01-16T15:59:30;97616.69;;;4.68;89.86